createdAt,value
2023-03-06T00:00:58.687Z,6.30
2023-03-06T00:03:29.693Z,6.50
2023-03-06T00:05:59.721Z,6.43
2023-03-06T00:08:29.258Z,6.87
2023-03-06T00:10:57.999Z,6.60
2023-03-06T00:13:26.683Z,5.67
2023-03-06T00:15:54.697Z,6.00
2023-03-06T00:18:22.510Z,5.80
2023-03-06T00:20:50.708Z,4.23
2023-03-06T00:23:19.971Z,4.37
2023-03-06T00:25:49.182Z,4.40
2023-03-06T00:28:17.791Z,4.30
2023-03-06T00:30:47.484Z,3.63
2023-03-06T00:33:15.253Z,4.03
2023-03-06T00:35:43.155Z,5.87
2023-03-06T00:38:12.881Z,2.70
2023-03-06T00:40:42.306Z,3.30
2023-03-06T00:43:10.209Z,5.47
2023-03-06T00:45:38.440Z,3.63
2023-03-06T00:48:06.893Z,5.15
2023-03-06T00:50:35.224Z,5.53
2023-03-06T00:53:03.191Z,4.47
2023-03-06T00:55:32.872Z,4.20
2023-03-06T00:58:02.204Z,4.50
2023-03-06T01:00:30.164Z,4.83
2023-03-06T01:02:57.930Z,4.77
2023-03-06T01:05:26.496Z,5.07
2023-03-06T01:07:54.593Z,6.30
2023-03-06T01:10:22.746Z,5.03
2023-03-06T01:12:50.524Z,5.07
2023-03-06T01:15:20.306Z,5.90
2023-03-06T01:17:48.416Z,5.60
2023-03-06T01:20:18.437Z,3.63
2023-03-06T01:22:46.610Z,4.93
2023-03-06T01:25:14.549Z,4.67
2023-03-06T01:27:42.421Z,5.07
2023-03-06T01:30:11.540Z,5.03
2023-03-06T01:32:40.875Z,4.60
2023-03-06T01:35:09.324Z,4.43
2023-03-06T01:37:37.612Z,4.97
2023-03-06T01:40:05.890Z,5.00
2023-03-06T01:42:33.862Z,5.67
2023-03-06T01:45:06.026Z,5.53
2023-03-06T01:47:33.930Z,6.17
2023-03-06T01:50:05.520Z,6.57
2023-03-06T01:52:39.450Z,6.53
2023-03-06T01:55:11.451Z,7.40
2023-03-06T01:57:43.704Z,5.97
2023-03-06T02:00:14.336Z,7.40
2023-03-06T02:02:44.956Z,6.77
2023-03-06T02:05:14.329Z,7.00
2023-03-06T02:07:43.896Z,6.67
2023-03-06T02:10:13.562Z,7.10
2023-03-06T02:12:43.631Z,7.30
2023-03-06T02:15:13.003Z,6.90
2023-03-06T02:17:43.012Z,8.10
2023-03-06T02:20:17.139Z,7.30
2023-03-06T02:22:51.146Z,7.57
2023-03-06T02:25:39.497Z,8.80
2023-03-06T02:28:10.682Z,7.83
2023-03-06T02:30:39.277Z,7.80
2023-03-06T02:33:07.721Z,7.90
2023-03-06T02:35:37.220Z,7.73
2023-03-06T02:38:09.550Z,7.67
2023-03-06T02:40:38.830Z,7.10
2023-03-06T02:43:06.717Z,5.37
2023-03-06T02:45:37.821Z,7.30
2023-03-06T02:48:06.828Z,6.27
2023-03-06T02:50:34.648Z,6.23
2023-03-06T02:53:02.556Z,6.23
2023-03-06T02:55:30.533Z,6.23
2023-03-06T02:57:59.897Z,6.13
2023-03-06T03:00:28.209Z,6.10
2023-03-06T03:02:56.481Z,6.53
2023-03-06T03:05:24.442Z,5.83
2023-03-06T03:07:52.317Z,4.87
2023-03-06T03:10:20.356Z,4.77
2023-03-06T03:12:48.092Z,5.43
2023-03-06T03:15:17.309Z,5.20
2023-03-06T03:17:45.301Z,5.40
2023-03-06T03:20:15.837Z,5.27
2023-03-06T03:22:43.932Z,6.57
2023-03-06T03:25:12.183Z,5.27
2023-03-06T03:27:39.908Z,5.60
2023-03-06T03:30:09.131Z,4.63
2023-03-06T03:32:38.433Z,4.70
2023-03-06T03:35:07.229Z,4.60
2023-03-06T03:37:35.027Z,4.70
2023-03-06T03:40:04.948Z,5.27
2023-03-06T03:42:32.683Z,4.70
2023-03-06T03:45:00.546Z,4.57
2023-03-06T03:47:28.383Z,4.80
2023-03-06T03:49:57.508Z,5.47
2023-03-06T03:52:25.470Z,4.50
2023-03-06T03:54:53.502Z,4.53
2023-03-06T03:57:21.243Z,4.87
2023-03-06T03:59:49.060Z,4.47
2023-03-06T04:02:17.093Z,4.07
2023-03-06T04:04:45.002Z,4.13
2023-03-06T04:07:14.423Z,3.87
2023-03-06T04:09:42.533Z,4.70
2023-03-06T04:12:10.598Z,4.50
2023-03-06T04:14:38.418Z,3.57
2023-03-06T04:17:06.270Z,4.00
2023-03-06T04:19:33.971Z,4.43
2023-03-06T04:22:02.245Z,3.80
2023-03-06T04:24:31.699Z,4.23
2023-03-06T04:26:59.517Z,3.80
2023-03-06T04:29:27.288Z,3.93
2023-03-06T04:31:55.048Z,4.60
2023-03-06T04:34:22.845Z,5.20
2023-03-06T04:36:50.612Z,4.73
2023-03-06T04:39:18.638Z,4.97
2023-03-06T04:41:47.896Z,4.50
2023-03-06T04:44:16.015Z,5.30
2023-03-06T04:46:44.017Z,4.13
2023-03-06T04:49:13.373Z,4.40
2023-03-06T04:51:41.155Z,5.40
2023-03-06T04:54:09.151Z,5.10
2023-03-06T04:56:36.971Z,4.43
2023-03-06T04:59:06.296Z,4.40
2023-03-06T05:01:34.084Z,5.30
2023-03-06T05:04:01.962Z,5.13
2023-03-06T05:06:29.905Z,4.93
2023-03-06T05:08:58.106Z,5.57
2023-03-06T05:11:26.056Z,5.23
2023-03-06T05:13:53.788Z,5.27
2023-03-06T05:16:23.171Z,4.27
2023-03-06T05:18:50.963Z,4.77
2023-03-06T05:21:18.793Z,5.43
2023-03-06T05:23:47.465Z,4.88
2023-03-06T05:26:16.685Z,4.63
2023-03-06T05:28:44.733Z,5.20
2023-03-06T05:31:12.535Z,5.70
2023-03-06T05:33:41.695Z,5.57
2023-03-06T05:36:10.330Z,5.70
2023-03-06T05:38:38.416Z,4.90
2023-03-06T05:41:06.391Z,5.67
2023-03-06T05:43:34.195Z,5.50
2023-03-06T05:46:03.752Z,4.60
2023-03-06T05:48:31.853Z,4.73
2023-03-06T05:51:02.742Z,5.23
2023-03-06T05:53:30.747Z,4.88
2023-03-06T05:55:59.199Z,4.53
2023-03-06T05:58:27.097Z,4.88
2023-03-06T06:00:55.050Z,4.65
2023-03-06T06:03:23.453Z,4.93
2023-03-06T06:05:51.867Z,4.40
2023-03-06T06:08:22.135Z,4.90
2023-03-06T06:10:53.235Z,5.00
2023-03-06T06:13:21.291Z,4.53
2023-03-06T06:15:49.091Z,4.57
2023-03-06T06:18:16.881Z,4.65
2023-03-06T06:20:44.707Z,4.97
2023-03-06T06:23:12.873Z,4.55
2023-03-06T06:25:42.335Z,4.68
2023-03-06T06:28:10.187Z,4.90
2023-03-06T06:30:38.408Z,4.40
2023-03-06T06:33:06.447Z,4.17
2023-03-06T06:35:37.902Z,4.33
2023-03-06T06:38:05.736Z,4.85
2023-03-06T06:40:34.282Z,4.35
2023-03-06T06:43:03.709Z,5.88
2023-03-06T06:45:31.474Z,6.20
2023-03-06T06:47:59.432Z,6.05
2023-03-06T06:50:27.211Z,6.00
2023-03-06T06:52:55.061Z,6.63
2023-03-06T06:55:22.850Z,6.32
2023-03-06T06:57:50.676Z,6.45
2023-03-06T07:00:21.374Z,6.90
2023-03-06T07:02:51.368Z,6.67
2023-03-06T07:05:20.988Z,6.23
2023-03-06T07:07:51.364Z,5.38
2023-03-06T07:10:20.726Z,5.85
2023-03-06T07:12:48.943Z,18.70
2023-03-06T07:15:19.632Z,6.93
2023-03-06T07:17:49.935Z,5.53
2023-03-06T07:20:19.013Z,7.30
2023-03-06T07:22:51.261Z,7.15
2023-03-06T07:25:19.988Z,4.85
2023-03-06T07:27:53.480Z,5.45
2023-03-06T07:30:23.971Z,4.65
2023-03-06T07:32:54.789Z,5.30
2023-03-06T07:35:23.263Z,4.47
2023-03-06T07:37:51.314Z,4.72
2023-03-06T07:40:21.065Z,5.30
2023-03-06T07:42:48.998Z,6.80
2023-03-06T07:45:17.101Z,5.43
2023-03-06T07:47:46.434Z,5.35
2023-03-06T07:50:14.570Z,6.13
2023-03-06T07:52:42.659Z,6.27
2023-03-06T07:55:11.891Z,5.97
2023-03-06T07:57:40.511Z,4.85
2023-03-06T08:00:11.937Z,5.60
2023-03-06T08:02:40.234Z,5.33
2023-03-06T08:05:11.017Z,5.50
2023-03-06T08:07:38.958Z,6.40
2023-03-06T08:10:07.720Z,7.60
2023-03-06T08:12:35.533Z,6.67
2023-03-06T08:15:03.502Z,7.65
2023-03-06T08:17:31.233Z,6.07
2023-03-06T08:19:59.192Z,5.77
2023-03-06T08:22:28.509Z,5.40
2023-03-06T08:24:56.655Z,5.60
2023-03-06T08:27:25.140Z,4.90
2023-03-06T08:29:53.561Z,5.60
2023-03-06T08:32:21.547Z,5.77
2023-03-06T08:34:49.637Z,5.80
2023-03-06T08:37:17.571Z,4.70
2023-03-06T08:39:46.724Z,5.00
2023-03-06T08:42:14.814Z,5.57
2023-03-06T08:44:43.092Z,4.90
2023-03-06T08:47:11.466Z,5.73
2023-03-06T08:49:40.614Z,4.80
2023-03-06T08:52:09.188Z,4.93
2023-03-06T08:54:37.284Z,4.70
2023-03-06T08:57:07.399Z,4.53
2023-03-06T08:59:35.361Z,4.00
2023-03-06T09:02:05.356Z,4.00
2023-03-06T09:04:33.369Z,3.70
2023-03-06T09:07:01.971Z,3.17
2023-03-06T09:09:29.783Z,3.80
2023-03-06T09:11:57.537Z,3.07
2023-03-06T09:14:26.793Z,2.50
2023-03-06T09:16:54.942Z,3.10
2023-03-06T09:19:22.942Z,3.70
2023-03-06T09:21:50.711Z,4.23
2023-03-06T09:24:18.568Z,4.83
2023-03-06T09:26:47.965Z,3.67
2023-03-06T09:29:17.496Z,4.07
2023-03-06T09:31:47.171Z,3.83
2023-03-06T09:34:18.179Z,3.63
2023-03-06T09:36:56.883Z,3.53
2023-03-06T09:39:26.336Z,2.93
2023-03-06T09:41:55.198Z,2.80
2023-03-06T09:44:25.975Z,2.90
2023-03-06T09:47:19.401Z,2.80
2023-03-06T09:50:05.507Z,2.80
2023-03-06T09:52:40.432Z,2.97
2023-03-06T09:55:13.583Z,2.77
2023-03-06T09:57:46.309Z,3.80
2023-03-06T10:00:17.593Z,4.53
2023-03-06T10:02:51.625Z,2.83
2023-03-06T10:05:27.586Z,2.20
2023-03-06T10:08:01.765Z,2.97
2023-03-06T10:10:37.133Z,2.30
2023-03-06T10:13:15.734Z,2.67
2023-03-06T10:15:46.108Z,3.00
2023-03-06T10:18:15.565Z,2.87
2023-03-06T10:20:50.884Z,3.10
2023-03-06T10:23:35.784Z,3.07
2023-03-06T10:26:12.173Z,2.50
2023-03-06T10:28:43.465Z,2.57
2023-03-06T10:31:17.831Z,2.50
2023-03-06T10:33:55.498Z,2.10
2023-03-06T10:36:27.207Z,2.80
2023-03-06T10:38:56.214Z,2.47
2023-03-06T10:41:28.391Z,2.20
2023-03-06T10:44:19.016Z,2.60
2023-03-06T10:46:49.522Z,2.47
2023-03-06T10:49:32.351Z,2.70
2023-03-06T10:52:03.653Z,2.67
2023-03-06T10:54:33.727Z,2.97
2023-03-06T10:57:20.758Z,3.13
2023-03-06T10:59:54.045Z,2.30
2023-03-06T11:02:32.141Z,2.67
2023-03-06T11:05:03.588Z,2.30
2023-03-06T11:07:32.374Z,2.57
2023-03-06T11:10:03.732Z,2.70
2023-03-06T11:12:34.479Z,2.90
2023-03-06T11:15:20.989Z,2.57
2023-03-06T11:17:55.708Z,3.03
2023-03-06T11:20:27.803Z,2.30
2023-03-06T11:22:59.700Z,2.50
2023-03-06T11:25:33.617Z,3.03
2023-03-06T11:28:05.125Z,3.93
2023-03-06T11:30:38.738Z,3.00
2023-03-06T11:33:16.580Z,2.17
2023-03-06T11:35:53.070Z,2.47
2023-03-06T11:38:27.017Z,2.37
2023-03-06T11:40:58.938Z,2.53
2023-03-06T11:43:35.140Z,3.17
2023-03-06T11:46:11.757Z,2.60
2023-03-06T11:48:47.599Z,2.23
2023-03-06T11:51:22.530Z,2.97
2023-03-06T11:53:50.601Z,2.50
2023-03-06T11:56:32.332Z,2.50
2023-03-06T11:59:24.394Z,2.47
2023-03-06T12:02:00.622Z,2.80
2023-03-06T12:04:55.143Z,2.20
2023-03-06T12:07:30.047Z,3.23
2023-03-06T12:10:15.051Z,2.60
2023-03-06T12:13:05.487Z,2.80
2023-03-06T12:15:47.305Z,2.60
2023-03-06T12:18:35.598Z,2.40
2023-03-06T12:21:08.380Z,2.73
2023-03-06T12:24:04.348Z,2.40
2023-03-06T12:26:55.488Z,2.57
2023-03-06T12:29:35.244Z,2.30
2023-03-06T12:32:14.928Z,2.30
2023-03-06T12:35:00.980Z,2.40
2023-03-06T12:37:41.685Z,3.20
2023-03-06T12:40:24.848Z,3.07
2023-03-06T12:43:12.650Z,2.57
2023-03-06T12:45:44.257Z,3.53
2023-03-06T12:48:19.318Z,3.43
2023-03-06T12:50:48.083Z,3.57
2023-03-06T12:53:25.748Z,3.13
2023-03-06T12:56:02.837Z,3.20
2023-03-06T12:58:52.080Z,4.90
2023-03-06T13:01:51.791Z,3.03
2023-03-06T13:04:32.718Z,4.03
2023-03-06T13:07:28.940Z,3.40
2023-03-06T13:10:15.745Z,3.17
2023-03-06T13:12:57.745Z,3.63
2023-03-06T13:16:22.721Z,3.33
2023-03-06T13:18:56.910Z,4.13
2023-03-06T13:22:03.102Z,3.30
2023-03-06T13:24:34.182Z,4.30
2023-03-06T13:27:05.941Z,3.73
2023-03-06T13:30:07.229Z,3.80
2023-03-06T13:32:41.566Z,3.40
2023-03-06T13:35:49.501Z,3.30
2023-03-06T13:38:51.623Z,3.20
2023-03-06T13:41:37.578Z,2.33
2023-03-06T13:44:49.655Z,2.83
2023-03-06T13:48:06.450Z,4.67
2023-03-06T13:50:38.024Z,2.70
2023-03-06T13:53:51.302Z,2.40
2023-03-06T13:56:38.281Z,2.87
2023-03-06T13:59:25.384Z,2.33
2023-03-06T14:02:03.632Z,2.43
2023-03-06T14:04:54.530Z,2.70
2023-03-06T14:07:31.175Z,2.80
2023-03-06T14:10:15.907Z,3.10
2023-03-06T14:12:55.742Z,2.17
2023-03-06T14:15:25.658Z,2.40
2023-03-06T14:18:01.707Z,2.83
2023-03-06T14:20:47.612Z,3.00
2023-03-06T14:23:24.560Z,2.73
2023-03-06T14:26:00.055Z,1.93
2023-03-06T14:28:30.760Z,3.20
2023-03-06T14:31:00.554Z,2.90
2023-03-06T14:33:35.558Z,2.60
2023-03-06T14:36:08.833Z,4.03
2023-03-06T14:38:43.364Z,3.20
2023-03-06T14:41:13.159Z,2.30
2023-03-06T14:43:42.089Z,2.80
2023-03-06T14:46:20.987Z,2.37
2023-03-06T14:48:54.209Z,2.50
2023-03-06T14:51:26.348Z,1.83
2023-03-06T14:53:55.871Z,2.50
2023-03-06T14:56:26.996Z,3.10
2023-03-06T14:58:58.386Z,4.03
2023-03-06T15:01:31.576Z,3.10
2023-03-06T15:04:00.964Z,1.90
2023-03-06T15:06:37.003Z,1.70
2023-03-06T15:09:09.701Z,1.93
2023-03-06T15:11:59.329Z,4.23
2023-03-06T15:14:36.514Z,2.07
2023-03-06T15:17:29.393Z,2.30
2023-03-06T15:19:58.821Z,2.40
2023-03-06T15:22:38.099Z,3.00
2023-03-06T15:25:30.201Z,2.33
2023-03-06T15:27:59.640Z,2.50
2023-03-06T15:30:31.268Z,2.27
2023-03-06T15:33:24.158Z,2.30
2023-03-06T15:35:57.243Z,2.53
2023-03-06T15:38:33.027Z,2.83
2023-03-06T15:41:02.482Z,2.30
2023-03-06T15:43:38.281Z,2.73
2023-03-06T15:46:10.158Z,2.20
2023-03-06T15:48:38.137Z,2.50
2023-03-06T15:51:06.598Z,2.60
2023-03-06T15:53:35.852Z,2.57
2023-03-06T15:56:03.731Z,2.30
2023-03-06T15:58:34.556Z,2.27
2023-03-06T16:01:03.756Z,2.10
2023-03-06T16:03:31.838Z,1.90
2023-03-06T16:06:00.330Z,2.67
2023-03-06T16:08:28.861Z,12.07
2023-03-06T16:11:01.174Z,3.70
2023-03-06T16:13:30.109Z,2.93
2023-03-06T16:15:57.956Z,2.77
2023-03-06T16:18:25.886Z,2.03
2023-03-06T16:20:53.691Z,2.33
2023-03-06T16:23:21.490Z,2.53
2023-03-06T16:25:50.539Z,1.90
2023-03-06T16:28:20.334Z,5.47
2023-03-06T16:30:48.141Z,2.57
2023-03-06T16:33:16.049Z,2.07
2023-03-06T16:35:46.582Z,2.40
2023-03-06T16:38:15.639Z,2.53
2023-03-06T16:40:44.254Z,3.13
2023-03-06T16:43:13.552Z,2.80
2023-03-06T16:45:43.515Z,2.70
2023-03-06T16:48:15.981Z,2.47
2023-03-06T16:50:43.778Z,3.23
2023-03-06T16:53:11.586Z,2.57
2023-03-06T16:55:39.568Z,1.87
2023-03-06T16:58:08.545Z,2.40
2023-03-06T17:00:36.675Z,1.97
2023-03-06T17:03:05.971Z,2.27
2023-03-06T17:05:34.821Z,2.23
2023-03-06T17:08:02.893Z,2.10
2023-03-06T17:10:31.440Z,2.13
2023-03-06T17:12:59.385Z,2.40
2023-03-06T17:15:27.556Z,3.10
2023-03-06T17:17:55.517Z,3.10
2023-03-06T17:20:25.238Z,3.20
2023-03-06T17:22:53.489Z,3.57
2023-03-06T17:25:21.819Z,3.60
2023-03-06T17:27:49.998Z,2.93
2023-03-06T17:30:19.854Z,2.87
2023-03-06T17:32:47.854Z,3.33
2023-03-06T17:35:15.802Z,3.73
2023-03-06T17:37:45.249Z,3.03
2023-03-06T17:40:15.626Z,2.60
2023-03-06T17:42:43.552Z,3.10
2023-03-06T17:45:14.497Z,2.70
2023-03-06T17:47:42.467Z,3.80
2023-03-06T17:50:11.659Z,3.60
2023-03-06T17:52:39.789Z,12.67
2023-03-06T17:55:10.327Z,4.17
2023-03-06T17:57:38.217Z,5.43
2023-03-06T18:00:07.559Z,3.90
2023-03-06T18:02:35.513Z,3.20
2023-03-06T18:05:03.611Z,4.10
2023-03-06T18:07:32.002Z,3.60
2023-03-06T18:09:59.765Z,3.10
2023-03-06T18:12:29.433Z,3.53
2023-03-06T18:14:57.295Z,4.30
2023-03-06T18:17:25.279Z,3.97
2023-03-06T18:19:53.196Z,4.27
2023-03-06T18:22:20.890Z,4.53
2023-03-06T18:24:49.221Z,12.57
2023-03-06T18:27:17.139Z,4.73
2023-03-06T18:29:46.342Z,3.50
2023-03-06T18:32:14.503Z,3.23
2023-03-06T18:34:42.558Z,3.50
2023-03-06T18:37:10.507Z,3.97
2023-03-06T18:39:40.534Z,3.40
2023-03-06T18:42:08.987Z,3.60
2023-03-06T18:44:37.160Z,4.90
2023-03-06T18:47:07.227Z,3.93
2023-03-06T18:49:40.921Z,6.20
2023-03-06T18:52:09.475Z,4.57
2023-03-06T18:54:37.536Z,4.72
2023-03-06T18:57:05.479Z,4.63
2023-03-06T18:59:35.858Z,4.10
2023-03-06T19:02:03.967Z,4.77
2023-03-06T19:04:33.367Z,4.90
2023-03-06T19:07:01.118Z,5.33
2023-03-06T19:09:28.946Z,5.20
2023-03-06T19:11:59.105Z,4.83
2023-03-06T19:14:28.665Z,5.13
2023-03-06T19:16:56.493Z,10.15
2023-03-06T19:19:26.317Z,7.20
2023-03-06T19:21:58.514Z,6.63
2023-03-06T19:24:26.962Z,6.67
2023-03-06T19:26:54.953Z,6.55
2023-03-06T19:29:23.248Z,12.87
2023-03-06T19:31:52.337Z,5.97
2023-03-06T19:34:20.329Z,7.03
2023-03-06T19:36:50.507Z,8.27
2023-03-06T19:39:19.763Z,5.63
2023-03-06T19:41:48.501Z,6.68
2023-03-06T19:44:17.288Z,6.35
2023-03-06T19:46:45.291Z,5.73
2023-03-06T19:49:18.211Z,5.45
2023-03-06T19:51:46.151Z,6.82
2023-03-06T19:54:15.005Z,6.13
2023-03-06T19:56:44.258Z,5.80
2023-03-06T19:59:12.013Z,6.47
2023-03-06T20:01:40.443Z,6.25
2023-03-06T20:04:08.375Z,7.05
2023-03-06T20:06:37.612Z,7.38
2023-03-06T20:09:08.696Z,7.93
2023-03-06T20:11:36.772Z,7.55
2023-03-06T20:14:08.643Z,6.35
2023-03-06T20:16:37.219Z,7.65
2023-03-06T20:19:05.817Z,6.30
2023-03-06T20:21:37.789Z,6.82
2023-03-06T20:24:10.798Z,7.78
2023-03-06T20:26:38.796Z,8.55
2023-03-06T20:29:07.869Z,7.60
2023-03-06T20:31:35.794Z,6.10
2023-03-06T20:34:05.270Z,8.85
2023-03-06T20:36:35.954Z,7.32
2023-03-06T20:39:06.353Z,7.85
2023-03-06T20:41:34.417Z,8.20
2023-03-06T20:44:04.104Z,8.40
2023-03-06T20:46:33.475Z,7.82
2023-03-06T20:49:01.956Z,7.78
2023-03-06T20:51:31.561Z,7.13
2023-03-06T20:54:00.201Z,7.88
2023-03-06T20:56:29.588Z,6.93
2023-03-06T20:58:59.907Z,7.90
2023-03-06T21:01:29.503Z,8.38
2023-03-06T21:03:59.917Z,8.52
2023-03-06T21:06:29.405Z,7.28
2023-03-06T21:08:57.520Z,7.07
2023-03-06T21:11:26.256Z,8.02
2023-03-06T21:13:54.648Z,10.50
2023-03-06T21:16:25.261Z,7.93
2023-03-06T21:18:55.187Z,8.00
2023-03-06T21:21:27.368Z,9.30
2023-03-06T21:23:55.951Z,8.63
2023-03-06T21:26:26.373Z,9.85
2023-03-06T21:28:54.750Z,9.60
2023-03-06T21:31:23.316Z,9.90
2023-03-06T21:33:51.751Z,8.77
2023-03-06T21:36:22.518Z,7.47
2023-03-06T21:38:54.062Z,8.00
2023-03-06T21:41:25.310Z,8.02
2023-03-06T21:43:56.548Z,6.90
2023-03-06T21:46:24.653Z,7.82
2023-03-06T21:48:52.799Z,7.75
2023-03-06T21:51:23.454Z,7.10
2023-03-06T21:53:54.144Z,8.25
2023-03-06T21:56:24.945Z,7.72
2023-03-06T21:58:52.863Z,7.15
2023-03-06T22:01:23.290Z,6.70
2023-03-06T22:03:51.757Z,6.60
2023-03-06T22:06:22.107Z,9.05
2023-03-06T22:08:50.084Z,8.30
2023-03-06T22:11:23.927Z,7.70
2023-03-06T22:13:53.269Z,7.70
2023-03-06T22:16:23.987Z,7.45
2023-03-06T22:18:57.594Z,7.40
2023-03-06T22:21:25.576Z,7.13
2023-03-06T22:23:57.158Z,6.45
2023-03-06T22:26:27.192Z,6.80
2023-03-06T22:28:55.315Z,7.18
2023-03-06T22:31:25.164Z,7.20
2023-03-06T22:33:54.238Z,6.20
2023-03-06T22:36:25.165Z,6.47
2023-03-06T22:38:56.682Z,6.30
2023-03-06T22:41:27.479Z,7.40
2023-03-06T22:43:57.156Z,7.45
2023-03-06T22:46:25.766Z,6.88
2023-03-06T22:48:54.183Z,7.18
2023-03-06T22:51:22.414Z,7.20
2023-03-06T22:53:50.621Z,6.72
2023-03-06T22:56:21.710Z,6.78
2023-03-06T22:58:50.964Z,6.53
2023-03-06T23:01:21.128Z,6.65
2023-03-06T23:03:50.778Z,6.60
2023-03-06T23:06:23.709Z,6.10
2023-03-06T23:08:53.599Z,7.20
2023-03-06T23:11:22.353Z,7.65
2023-03-06T23:13:51.475Z,5.90
2023-03-06T23:16:19.205Z,7.28
2023-03-06T23:18:47.547Z,7.22
2023-03-06T23:21:18.124Z,7.30
2023-03-06T23:23:49.602Z,7.07
2023-03-06T23:26:18.009Z,8.50
2023-03-06T23:28:46.230Z,7.65
2023-03-06T23:31:17.980Z,8.35
2023-03-06T23:33:46.003Z,7.95
2023-03-06T23:36:15.451Z,7.15
2023-03-06T23:38:43.996Z,7.93
2023-03-06T23:41:14.023Z,9.45
2023-03-06T23:43:42.081Z,7.18
2023-03-06T23:46:10.417Z,6.97
2023-03-06T23:48:40.970Z,7.07
2023-03-06T23:51:10.151Z,9.18
2023-03-06T23:53:38.068Z,6.78
2023-03-06T23:56:07.184Z,6.15
2023-03-06T23:58:35.221Z,6.38
